Flight Track Log - Related Links

Times and Time Zones

All times are in EDT time to prevent confusion due to time zone crossing. See the JBU1347 flight status page for this flight to view local times or setup timezone preferences in your user account.

Time Position Orientation Groundspeed Altitude Reporting Facility
EDT Latitude Longitude Course Direction KTS MPH feet Rate Location/Type
Fri 08:04:38 AM 38.8667 -77.0333 180° South 160 184 900  Level Potomac TRACON
Fri 08:05:32 AM 38.9000 -77.0833 311° West 188 216 2,400 2,474 Climbing Potomac TRACON
Fri 08:06:32 AM 38.9500 -77.1333 322° Northwest 245 282 5,600 3,300 Climbing Potomac TRACON
Fri 08:07:32 AM 39.0167 -77.1500 349° North 273 314 9,000 2,650 Climbing Potomac TRACON
Fri 08:08:00 AM 38.4101 -76.7000 180° South  Level FlightAware Approximate
Fri 08:08:32 AM 39.0167 -77.0333 90° East 358 412 10,900  Level Potomac TRACON
Fri 08:09:00 AM 38.2897 -76.6833 180° South  Level FlightAware Approximate
Fri 08:09:26 AM 38.9500 -76.9500 136° Southeast 413 475 12,400  Level Potomac TRACON
Fri 08:10:00 AM 38.1574 -76.6667 180° South  Level FlightAware Approximate
Fri 08:10:58 AM 38.7900 -76.8567 156° South 395 455 16,000  Level Washington Center
Fri 08:11:59 AM 38.6842 -76.7992 157° South 407 468 18,100 1,488 Climbing Washington Center
Fri 08:12:59 AM 38.5783 -76.7442 158° South 414 476 19,000 1,160 Climbing Washington Center
Fri 08:13:58 AM 38.4556 -76.7158 170° South 421 484 20,400 1,513 Climbing Washington Center
Fri 08:14:58 AM 38.3328 -76.7008 175° South 439 505 22,000 1,563 Climbing Washington Center
Fri 08:15:57 AM 38.2203 -76.6806 172° South 450 518 23,500 1,400 Climbing Washington Center
Fri 08:16:58 AM 38.0933 -76.6631 174° South 455 524 24,800 1,250 Climbing Washington Center
Fri 08:17:57 AM 37.9622 -76.6453 174° South 465 535 26,000 1,050 Climbing Washington Center
Fri 08:18:58 AM 37.8289 -76.6303 175° South 476 548 26,900 942 Climbing Washington Center
Fri 08:19:58 AM 37.6914 -76.6128 174° South 488 562 27,900 893 Climbing Washington Center
Fri 08:20:59 AM 37.5497 -76.5925 174° South 505 581 28,700 1,008 Climbing Washington Center
Fri 08:21:57 AM 37.3933 -76.5694 173° South 511 588 29,900 1,169 Climbing Washington Center
Fri 08:22:57 AM 37.2517 -76.5547 175° South 516 594 31,000 1,140 Climbing Washington Center
Fri 08:23:58 AM 37.1119 -76.5372 174° South 521 600 32,200 934 Climbing Washington Center
Fri 08:24:59 AM 36.9792 -76.4628 156° South 509 586 32,900 403 Climbing Washington Center
Fri 08:25:57 AM 36.8503 -76.3653 149° Southeast 528 608 33,000 50 Climbing Washington Center
Fri 08:26:58 AM 36.7258 -76.2736 149° Southeast 522 601 33,000  Level Washington Center
Fri 08:29:14 AM 36.4361 -76.0614 149° Southeast 525 604 33,000  Level New York Center
Fri 08:30:14 AM 36.3128 -75.9728 150° Southeast 525 604 33,000  Level New York Center
Fri 08:31:14 AM 36.1856 -75.8792 149° Southeast 520 598 33,000  Level New York Center
Fri 08:32:14 AM 36.0581 -75.7886 150° Southeast 520 598 33,000  Level New York Center
Fri 08:33:14 AM 35.9322 -75.7008 151° Southeast 520 598 33,000  Level New York Center
Fri 08:34:14 AM 35.8136 -75.5933 144° Southeast 525 604 33,000  Level New York Center
Fri 08:35:14 AM 35.7128 -75.4567 132° Southeast 527 606 33,000  Level New York Center
Fri 08:36:14 AM 35.6117 -75.3256 133° Southeast 533 613 33,000 -50 Level New York Center
Fri 08:37:14 AM 35.5103 -75.1919 133° Southeast 533 613 32,900 -50 Descending New York Center
Fri 08:38:14 AM 35.4089 -75.0639 134° Southeast 533 613 32,900  Level New York Center
Fri 08:39:14 AM 35.3072 -74.9311 133° Southeast 528 608 32,900 50 Level New York Center
Fri 08:40:14 AM 35.2053 -74.8036 134° Southeast 528 608 33,000 50 Climbing New York Center
Fri 08:41:14 AM 35.1056 -74.6692 132° Southeast 528 608 33,000  Level New York Center
Fri 08:42:14 AM 35.0011 -74.5472 136° Southeast 528 608 33,000  Level New York Center
Fri 08:43:14 AM 34.9011 -74.4158 133° Southeast 528 608 33,000  Level New York Center
Fri 08:44:14 AM 34.7986 -74.2897 135° Southeast 528 608 33,000  Level New York Center
Fri 08:45:14 AM 34.7000 -74.1617 133° Southeast 528 608 33,000  Level New York Center
Fri 08:46:14 AM 34.5972 -74.0339 134° Southeast 528 608 33,000  Level New York Center
Fri 08:47:14 AM 34.4922 -73.9161 137° Southeast 528 608 33,000  Level New York Center
Fri 08:48:14 AM 34.3736 -73.8208 146° Southeast 523 602 33,000  Level New York Center
Fri 08:49:14 AM 34.2506 -73.7458 153° Southeast 494 568 33,000  Level New York Center
Fri 08:50:14 AM 34.1203 -73.6958 162° South 494 568 33,000  Level New York Center
Fri 08:50:41 AM 34.3667 -73.7667 165° South 487 560 33,000  Level New York Oceanic (ODAPS)
Fri 08:51:14 AM 33.9944 -73.6486 165° South 488 562 33,000  Level New York Center
Fri 08:52:14 AM 33.8639 -73.6067 165° South 483 556 33,000  Level New York Center
Fri 08:53:14 AM 33.7394 -73.5797 170° South 493 567 33,000  Level New York Center
Fri 08:54:14 AM 33.6094 -73.5253 161° South 465 535 33,000 -50 Level New York Center
Fri 08:55:14 AM 33.4808 -73.4986 170° South 485 558 32,900 -50 Descending New York Center
Fri 08:56:14 AM 33.3589 -73.4572 164° South 479 551 32,900 Level New York Center
Fri 09:26:04 AM 30.1667 -72.4500 166° South 465 535 33,000 Climbing New York Oceanic (ODAPS)
Fri 09:59:07 AM 25.4019 -71.1322 175° South 470 541 33,000  Level Miami Center
Fri 10:00:00 AM 25.2524 -71.0836 166° South 465 535 33,000  Level FlightAware Transoceanic
Fri 10:00:07 AM 25.2694 -71.1086 171° South 475 547 33,000  Level Miami Center
Fri 10:01:00 AM 25.1262 -71.0501 166° South 465 535 33,000  Level FlightAware Transoceanic
Fri 10:01:07 AM 25.1403 -71.0642 163° South 481 554 33,000  Level Miami Center
Fri 10:02:00 AM 25.0000 -71.0167 175° South 465 535 33,000  Level FlightAware Transoceanic
Fri 10:02:07 AM 25.0075 -71.0317 167° South 481 554 33,000  Level Miami Center
Fri 10:03:00 AM 24.8667 -71.0040 175° South 465 535 33,000  Level FlightAware Transoceanic
Fri 10:03:07 AM 24.8736 -71.0197 175° South 481 554 33,000  Level Miami Center
Fri 10:04:07 AM 24.7414 -71.0078 175° South 481 554 33,000  Level Miami Center
Fri 10:05:07 AM 24.6114 -70.9911 173° South 481 554 33,000  Level Miami Center
Fri 10:06:07 AM 24.4783 -70.9517 165° South 481 554 33,000  Level Miami Center
Fri 10:07:07 AM 24.3642 -70.8614 144° Southeast 484 557 33,000  Level Miami Center
Fri 10:08:07 AM 24.2519 -70.7758 145° Southeast 484 557 33,000  Level Miami Center
Fri 10:09:07 AM 24.1397 -70.6814 142° Southeast 499 574 33,000  Level Miami Center
Fri 10:10:07 AM 24.0253 -70.5914 144° Southeast 504 580 33,000  Level Miami Center
Fri 10:11:07 AM 23.9131 -70.5064 145° Southeast 509 586 33,000  Level Miami Center
Fri 10:12:07 AM 23.7964 -70.4100 143° Southeast 509 586 33,000  Level Miami Center
Fri 10:13:07 AM 23.6839 -70.3183 143° Southeast 509 586 33,000  Level Miami Center
Fri 10:14:07 AM 23.5714 -70.2292 144° Southeast 509 586 33,000  Level Miami Center
Fri 10:15:07 AM 23.4589 -70.1422 145° Southeast 509 586 33,000  Level Miami Center
Fri 10:16:07 AM 23.3419 -70.0469 143° Southeast 509 586 33,000  Level Miami Center
Fri 10:17:07 AM 23.2297 -69.9625 145° Southeast 509 586 33,000  Level Miami Center
Fri 10:18:07 AM 23.1194 -69.8758 144° Southeast 496 571 33,000  Level Miami Center
Fri 10:19:07 AM 22.9958 -69.7789 144° Southeast 502 578 33,000  Level Miami Center
Fri 10:20:07 AM 22.8811 -69.6886 144° Southeast 502 578 33,000  Level Miami Center
Fri 10:21:07 AM 22.7683 -69.6003 144° Southeast 507 583 33,000  Level Miami Center
Fri 10:22:08 AM 22.6536 -69.5125 145° Southeast 507 583 33,000  Level Miami Center
Fri 10:23:07 AM 22.5408 -69.4222 144° Southeast 507 583 33,000  Level Miami Center
Fri 10:24:07 AM 22.4283 -69.3367 145° Southeast 507 583 33,000  Level Miami Center
Fri 10:25:07 AM 22.3153 -69.2469 144° Southeast 507 583 33,000  Level Miami Center
Fri 10:26:07 AM 22.1964 -69.1597 146° Southeast 507 583 33,000  Level Miami Center
Fri 10:27:07 AM 22.0833 -69.0703 144° Southeast 512 589 33,000  Level Miami Center
Fri 10:28:07 AM 21.9728 -68.9853 145° Southeast 506 582 33,000  Level Miami Center
Fri 10:29:07 AM 21.8578 -68.8961 144° Southeast 501 577 33,000  Level Miami Center
Fri 10:30:07 AM 21.7469 -68.8111 145° Southeast 506 582 33,000  Level Miami Center
Fri 10:31:07 AM 21.6319 -68.7222 144° Southeast 506 582 33,000  Level Miami Center
Fri 10:32:07 AM 21.5189 -68.6358 145° Southeast 511 588 33,000  Level Miami Center
Fri 10:33:07 AM 21.4081 -68.5514 145° Southeast 505 581 33,000  Level Miami Center
Fri 10:34:07 AM 21.2950 -68.4628 144° Southeast 505 581 33,000  Level Miami Center
Fri 10:35:07 AM 21.1758 -68.3769 146° Southeast 500 575 33,000  Level Miami Center
Fri 10:36:07 AM 21.0606 -68.2911 145° Southeast 506 582 33,000  Level Miami Center
Fri 10:37:07 AM 20.9475 -68.2050 145° Southeast 506 582 33,000  Level Miami Center
Fri 10:38:07 AM 20.8303 -68.1194 146° Southeast 511 588 33,000  Level Miami Center
Fri 10:39:07 AM 20.7064 -68.0611 156° South 506 582 33,000  Level Miami Center
Fri 10:40:07 AM 20.5708 -68.0214 165° South 498 573 33,000  Level Miami Center
Fri 10:41:07 AM 20.4372 -67.9769 163° South 498 573 33,000  Level Miami Center
Fri 10:42:07 AM 20.3039 -67.9369 164° South 504 580 33,000  Level Miami Center
Fri 10:43:07 AM 20.1708 -67.8992 165° South 504 580 33,000  Level Miami Center
Fri 10:43:56 AM 20.0667 -67.8667 164° South 510 587 33,000  Level San Juan Center
Fri 10:44:57 AM 19.9167 -67.8333 168° South 500 575 33,000  Level San Juan Center
Fri 10:45:57 AM 19.8167 -67.7333 137° Southeast 500 575 33,000  Level San Juan Center
Fri 10:46:57 AM 19.7167 -67.6333 137° Southeast 500 575 33,000  Level San Juan Center
Fri 10:47:58 AM 19.6167 -67.5333 137° Southeast 500 575 33,000 -992 Level San Juan Center
Fri 10:48:58 AM 19.5167 -67.4167 132° Southeast 510 587 31,000 -2,500 Descending San Juan Center
Fri 10:49:58 AM 19.4167 -67.3167 137° Southeast 510 587 28,000 -2,628 Descending San Juan Center
Fri 10:50:59 AM 19.3167 -67.2167 137° Southeast 490 564 25,700 -2,281 Descending San Juan Center
Fri 10:51:59 AM 19.2333 -67.1167 131° Southeast 470 541 23,400 -2,331 Descending San Juan Center
Fri 10:53:00 AM 19.1333 -67.0167 137° Southeast 460 529 21,000 -2,380 Descending San Juan Center
Fri 10:54:00 AM 19.0333 -66.9167 137° Southeast 440 506 18,600 -2,500 Descending San Juan Center
Fri 10:55:00 AM 18.9500 -66.8333 137° Southeast 410 472 16,000 -2,430 Descending San Juan Center
Fri 10:56:01 AM 18.8667 -66.7333 131° Southeast 410 472 13,700 -2,231 Descending San Juan Center
Fri 10:57:01 AM 18.8000 -66.6667 137° Southeast 380 437 11,500 -1,350 Descending San Juan Center
Fri 10:58:01 AM 18.7333 -66.5833 130° Southeast 350 403 11,000 -545 Descending San Juan Center
Fri 10:59:02 AM 18.6833 -66.5000 122° Southeast 320 368 10,400 -992 Descending San Juan Center
Fri 11:00:02 AM 18.6333 -66.4333 128° Southeast 300 345 9,000 -1,488 Descending San Juan Center
Fri 11:01:03 AM 18.5667 -66.3833 145° Southeast 280 322 7,400 -1,488 Descending San Juan Center
Fri 11:02:03 AM 18.5167 -66.3167 128° Southeast 270 311 6,000 -1,350 Descending San Juan Center
Fri 11:03:03 AM 18.4500 -66.2667 145° Southeast 260 299 4,700 -1,388 Descending San Juan Center
Fri 11:04:04 AM 18.4333 -66.2000 105° East 260 299 3,200 -1,339 Descending San Juan Center
Fri 11:05:04 AM 18.4333 -66.1333 90° East 260 299 2,000 -850 Descending San Juan Center
Fri 11:06:04 AM 18.4333 -66.0667 90° East 200 230 1,500 -793 Descending San Juan Center
Fri 11:07:05 AM 18.4333 -66.0167 90° East 140 161 400 -1,082 Descending San Juan Center

Login

Don't have an account? Register now (free) for customized features, flight alerts, and more!